createdAt,value
2018-02-21T00:00:26.354Z,28.40
2018-02-21T00:01:26.337Z,30.70
2018-02-21T00:02:26.320Z,26.30
2018-02-21T00:03:26.304Z,28.70
2018-02-21T00:04:26.285Z,29.10
2018-02-21T00:05:26.268Z,32.00
2018-02-21T00:06:26.260Z,30.60
2018-02-21T00:07:26.235Z,33.70
2018-02-21T00:08:26.223Z,29.60
2018-02-21T00:09:26.210Z,30.30
2018-02-21T00:10:26.186Z,31.40
2018-02-21T00:11:26.169Z,30.40
2018-02-21T00:12:26.154Z,32.60
2018-02-21T00:13:26.135Z,32.90
2018-02-21T00:14:26.119Z,30.60
2018-02-21T00:15:26.103Z,31.20
2018-02-21T00:16:26.088Z,31.00
2018-02-21T00:17:26.073Z,29.40
2018-02-21T00:18:26.057Z,31.50
2018-02-21T00:19:26.037Z,29.20
2018-02-21T00:20:26.028Z,27.90
2018-02-21T00:21:26.006Z,31.40
2018-02-21T00:22:25.990Z,33.90
2018-02-21T00:23:25.971Z,32.40
2018-02-21T00:24:25.960Z,31.30
2018-02-21T00:25:25.938Z,32.30
2018-02-21T00:26:25.922Z,31.30
2018-02-21T00:27:25.907Z,34.40
2018-02-21T00:28:25.886Z,34.90
2018-02-21T00:29:25.872Z,31.70
2018-02-21T00:30:25.855Z,34.20
2018-02-21T00:31:25.842Z,34.80
2018-02-21T00:32:25.822Z,31.90
2018-02-21T00:33:25.813Z,31.90
2018-02-21T00:34:25.791Z,36.70
2018-02-21T00:35:25.774Z,32.00
2018-02-21T00:36:25.756Z,35.70
2018-02-21T00:37:25.739Z,34.50
2018-02-21T00:38:25.729Z,35.70
2018-02-21T00:39:25.707Z,33.90
2018-02-21T00:40:25.688Z,32.20
2018-02-21T00:41:25.672Z,37.80
2018-02-21T00:42:25.656Z,36.10
2018-02-21T00:43:25.645Z,35.90
2018-02-21T00:44:25.628Z,35.70
2018-02-21T00:45:25.603Z,36.40
2018-02-21T00:46:25.588Z,35.40
2018-02-21T00:47:25.571Z,38.00
2018-02-21T00:48:25.555Z,35.60
2018-02-21T00:49:25.538Z,40.40
2018-02-21T00:50:25.522Z,37.20
2018-02-21T00:51:25.509Z,38.90
2018-02-21T00:52:25.490Z,35.20
2018-02-21T00:53:25.476Z,35.20
2018-02-21T00:54:25.451Z,36.70
2018-02-21T00:55:25.433Z,37.60
2018-02-21T00:56:25.417Z,36.20
2018-02-21T00:57:25.401Z,38.60
2018-02-21T00:58:25.383Z,35.40
2018-02-21T00:59:25.366Z,37.30
2018-02-21T01:00:25.355Z,34.50
2018-02-21T01:01:25.331Z,36.10
2018-02-21T01:02:25.314Z,38.50
2018-02-21T01:03:25.298Z,37.10
2018-02-21T01:04:25.286Z,37.40
2018-02-21T01:05:25.270Z,37.10
2018-02-21T01:06:25.246Z,38.30
2018-02-21T01:07:25.230Z,38.10
2018-02-21T01:08:25.212Z,38.90
2018-02-21T01:09:25.194Z,41.20
2018-02-21T01:10:25.184Z,39.10
2018-02-21T01:11:25.166Z,39.30
2018-02-21T01:12:25.142Z,41.20
2018-02-21T01:13:25.125Z,39.70
2018-02-21T01:14:25.109Z,38.80
2018-02-21T01:15:25.092Z,39.10
2018-02-21T01:16:25.075Z,38.90
2018-02-21T01:17:25.055Z,37.80
2018-02-21T01:18:25.047Z,39.70
2018-02-21T01:19:25.030Z,39.60
2018-02-21T01:20:25.002Z,42.20
2018-02-21T01:21:24.992Z,38.90
2018-02-21T01:22:24.975Z,41.70
2018-02-21T01:23:24.956Z,43.40
2018-02-21T01:24:24.933Z,42.30
2018-02-21T01:25:24.921Z,41.00
2018-02-21T01:26:24.898Z,43.70
2018-02-21T01:27:24.884Z,42.20
2018-02-21T01:28:24.864Z,40.10
2018-02-21T01:29:24.845Z,39.70
2018-02-21T01:30:24.829Z,41.60
2018-02-21T01:31:24.811Z,40.80
2018-02-21T01:32:24.798Z,42.30
2018-02-21T01:33:24.780Z,41.90
2018-02-21T01:34:24.759Z,43.80
2018-02-21T01:35:24.745Z,41.80
2018-02-21T01:36:24.722Z,44.20
2018-02-21T01:37:24.705Z,43.00
2018-02-21T01:38:24.689Z,44.40
2018-02-21T01:39:24.676Z,43.30
2018-02-21T01:40:24.651Z,41.30
2018-02-21T01:41:24.636Z,41.70
2018-02-21T01:42:24.623Z,41.20
2018-02-21T01:43:24.601Z,43.90
2018-02-21T01:44:24.583Z,43.20
2018-02-21T01:45:24.564Z,43.60
2018-02-21T01:46:24.554Z,42.80
2018-02-21T01:47:24.530Z,43.50
2018-02-21T01:48:24.516Z,41.40
2018-02-21T01:49:24.496Z,46.10
2018-02-21T01:50:24.485Z,44.60
2018-02-21T01:51:24.468Z,47.60
2018-02-21T01:52:24.443Z,41.30
2018-02-21T01:53:24.426Z,40.40
2018-02-21T01:54:24.409Z,44.00
2018-02-21T01:55:24.392Z,48.20
2018-02-21T01:56:24.380Z,46.70
2018-02-21T01:57:24.356Z,43.90
2018-02-21T01:58:24.342Z,45.40
2018-02-21T01:59:24.326Z,46.00
2018-02-21T02:00:24.303Z,44.90
2018-02-21T02:01:24.287Z,46.30
2018-02-21T02:02:24.268Z,42.50
2018-02-21T02:03:24.251Z,46.90
2018-02-21T02:04:24.239Z,42.00
2018-02-21T02:05:24.221Z,44.40
2018-02-21T02:06:24.198Z,42.50
2018-02-21T02:07:24.186Z,47.20
2018-02-21T02:08:24.170Z,45.90
2018-02-21T02:09:24.145Z,42.50
2018-02-21T02:10:24.129Z,45.20
2018-02-21T02:11:24.108Z,47.60
2018-02-21T02:12:24.094Z,45.50
2018-02-21T02:13:24.075Z,47.60
2018-02-21T02:14:24.058Z,42.60
2018-02-21T02:15:24.037Z,46.00
2018-02-21T02:16:24.021Z,46.50
2018-02-21T02:17:24.019Z,44.70
2018-02-21T02:18:23.996Z,40.20
2018-02-21T02:19:23.967Z,44.10
2018-02-21T02:20:23.959Z,46.90
2018-02-21T02:21:23.943Z,43.30
2018-02-21T02:22:23.922Z,44.00
2018-02-21T02:23:23.897Z,44.40
2018-02-21T02:24:23.880Z,46.50
2018-02-21T02:25:23.863Z,43.30
2018-02-21T02:26:23.853Z,49.10
2018-02-21T02:27:23.832Z,42.70
2018-02-21T02:28:23.810Z,46.20
2018-02-21T02:29:23.797Z,48.00
2018-02-21T02:30:23.780Z,47.50
2018-02-21T02:31:23.764Z,46.70
2018-02-21T02:32:23.745Z,49.00
2018-02-21T02:33:23.723Z,46.10
2018-02-21T02:34:23.705Z,43.60
2018-02-21T02:35:23.691Z,47.20
2018-02-21T02:36:23.672Z,45.20
2018-02-21T02:37:23.655Z,43.60
2018-02-21T02:38:23.638Z,45.50
2018-02-21T02:39:23.619Z,42.30
2018-02-21T02:40:23.600Z,45.90
2018-02-21T02:41:23.578Z,44.70
2018-02-21T02:42:23.571Z,46.70
2018-02-21T02:43:23.550Z,46.30
2018-02-21T02:44:23.532Z,48.20
2018-02-21T02:45:23.509Z,43.00
2018-02-21T02:46:23.493Z,44.40
2018-02-21T02:47:23.472Z,44.60
2018-02-21T02:48:23.455Z,45.90
2018-02-21T02:49:23.437Z,45.40
2018-02-21T02:50:23.422Z,47.80
2018-02-21T02:51:23.410Z,44.30
2018-02-21T02:52:23.385Z,44.10
2018-02-21T02:53:23.369Z,45.50
2018-02-21T02:54:23.348Z,45.10
2018-02-21T02:55:23.330Z,46.00
2018-02-21T02:56:23.311Z,49.70
2018-02-21T02:57:23.297Z,46.60
2018-02-21T02:58:23.279Z,45.40
2018-02-21T02:59:23.259Z,49.30
2018-02-21T03:00:23.239Z,48.50
2018-02-21T03:01:23.229Z,46.40
2018-02-21T03:02:23.207Z,45.70
2018-02-21T03:03:23.193Z,46.40
2018-02-21T03:04:23.180Z,42.30
2018-02-21T03:05:23.156Z,47.70
2018-02-21T03:06:23.134Z,42.50
2018-02-21T03:07:23.114Z,48.00
2018-02-21T03:08:23.097Z,45.60
2018-02-21T03:09:23.082Z,45.90
2018-02-21T03:10:23.069Z,45.70
2018-02-21T03:11:23.047Z,45.50
2018-02-21T03:12:23.032Z,46.20
2018-02-21T03:13:23.009Z,45.90
2018-02-21T03:14:22.994Z,48.10
2018-02-21T03:15:22.973Z,46.80
2018-02-21T03:16:22.954Z,45.70
2018-02-21T03:17:22.970Z,42.90
2018-02-21T03:18:22.920Z,44.30
2018-02-21T03:19:22.911Z,46.40
2018-02-21T03:20:22.885Z,44.60
2018-02-21T03:21:22.865Z,45.70
2018-02-21T03:22:22.849Z,44.40
2018-02-21T03:23:22.833Z,46.60
2018-02-21T03:24:22.814Z,44.10
2018-02-21T03:25:22.797Z,44.30
2018-02-21T03:26:22.781Z,45.40
2018-02-21T03:27:22.766Z,46.60
2018-02-21T03:28:22.748Z,47.50
2018-02-21T03:29:22.728Z,48.10
2018-02-21T03:30:22.708Z,44.60
2018-02-21T03:31:22.689Z,44.50
2018-02-21T03:32:22.674Z,41.80
2018-02-21T03:33:22.655Z,41.10
2018-02-21T03:34:22.636Z,41.40
2018-02-21T03:35:22.619Z,45.00
2018-02-21T03:36:22.603Z,44.00
2018-02-21T03:37:22.589Z,43.10
2018-02-21T03:38:22.571Z,46.60
2018-02-21T03:39:22.546Z,41.60
2018-02-21T03:40:22.531Z,41.90
2018-02-21T03:41:22.512Z,41.50
2018-02-21T03:42:22.498Z,40.10
2018-02-21T03:43:22.482Z,42.10
2018-02-21T03:44:22.465Z,42.90
2018-02-21T03:45:22.443Z,43.30
2018-02-21T03:46:22.424Z,42.70
2018-02-21T03:47:22.407Z,41.30
2018-02-21T03:48:22.389Z,41.50
2018-02-21T03:49:22.370Z,39.70
2018-02-21T03:50:22.352Z,39.20
2018-02-21T03:51:22.335Z,40.30
2018-02-21T03:52:22.322Z,41.10
2018-02-21T03:53:22.300Z,39.60
2018-02-21T03:54:22.281Z,43.30
2018-02-21T03:55:22.263Z,43.00
2018-02-21T03:56:22.249Z,41.60
2018-02-21T03:57:22.228Z,40.70
2018-02-21T03:58:22.208Z,40.70
2018-02-21T03:59:22.191Z,37.60
2018-02-21T04:00:22.174Z,39.80
2018-02-21T04:01:22.160Z,37.20
2018-02-21T04:02:22.141Z,41.80
2018-02-21T04:03:22.118Z,38.20
2018-02-21T04:04:22.102Z,41.60
2018-02-21T04:05:22.084Z,36.30
2018-02-21T04:06:22.065Z,37.20
2018-02-21T04:07:22.054Z,35.20
2018-02-21T04:08:22.026Z,38.50
2018-02-21T04:09:22.013Z,39.00
2018-02-21T04:10:22.003Z,35.80
2018-02-21T04:11:21.973Z,37.00
2018-02-21T04:12:21.961Z,36.40
2018-02-21T04:13:21.938Z,36.20
2018-02-21T04:14:21.919Z,36.40
2018-02-21T04:15:21.900Z,33.70
2018-02-21T04:16:21.888Z,36.60
2018-02-21T04:17:21.867Z,36.20
2018-02-21T04:18:21.846Z,37.40
2018-02-21T04:19:21.829Z,33.50
2018-02-21T04:20:21.808Z,36.80
2018-02-21T04:21:21.796Z,35.10
2018-02-21T04:22:21.775Z,36.60
2018-02-21T04:23:21.758Z,34.30
2018-02-21T04:24:21.740Z,35.50
2018-02-21T04:25:21.727Z,34.90
2018-02-21T04:26:21.700Z,34.60
2018-02-21T04:27:21.687Z,33.10
2018-02-21T04:28:21.669Z,33.70
2018-02-21T04:29:21.646Z,34.70
2018-02-21T04:30:21.632Z,36.20
2018-02-21T04:31:21.611Z,33.90
2018-02-21T04:32:21.590Z,34.60
2018-02-21T04:33:21.571Z,33.60
2018-02-21T04:34:21.554Z,34.40
2018-02-21T04:35:21.535Z,36.20
2018-02-21T04:36:21.516Z,38.80
2018-02-21T04:37:21.502Z,34.90
2018-02-21T04:38:21.479Z,34.40
2018-02-21T04:39:21.462Z,33.10
2018-02-21T04:40:21.445Z,33.40
2018-02-21T04:41:21.424Z,34.40
2018-02-21T04:42:21.413Z,34.40
2018-02-21T04:43:21.391Z,36.10
2018-02-21T04:44:21.372Z,34.30
2018-02-21T04:45:21.352Z,33.20
2018-02-21T04:46:21.341Z,35.10
2018-02-21T04:47:21.315Z,33.20
2018-02-21T04:48:21.299Z,33.30
2018-02-21T04:49:21.307Z,33.20
2018-02-21T04:50:21.261Z,33.00
2018-02-21T04:51:21.242Z,33.00
2018-02-21T04:52:21.224Z,34.50
2018-02-21T04:53:21.207Z,35.40
2018-02-21T04:54:21.188Z,34.50
2018-02-21T04:55:21.174Z,33.50
2018-02-21T04:56:21.151Z,33.00
2018-02-21T04:57:21.135Z,30.40
2018-02-21T04:58:21.120Z,35.10
2018-02-21T04:59:21.100Z,32.80
2018-02-21T05:00:21.078Z,33.30
2018-02-21T05:01:21.060Z,31.90
2018-02-21T05:02:21.043Z,36.70
2018-02-21T05:03:21.028Z,33.90
2018-02-21T05:04:21.006Z,33.20
2018-02-21T05:05:20.994Z,34.00
2018-02-21T05:06:20.970Z,34.10
2018-02-21T05:07:20.958Z,31.90
2018-02-21T05:08:20.934Z,32.70
2018-02-21T05:09:20.922Z,33.10
2018-02-21T05:10:20.900Z,32.30
2018-02-21T05:11:20.880Z,34.70
2018-02-21T05:12:20.867Z,34.20
2018-02-21T05:13:20.848Z,31.60
2018-02-21T05:14:20.833Z,32.50
2018-02-21T05:15:20.814Z,32.30
2018-02-21T05:16:20.792Z,32.60
2018-02-21T05:17:20.770Z,32.90
2018-02-21T05:18:20.756Z,35.10
2018-02-21T05:19:20.734Z,32.80
2018-02-21T05:20:20.719Z,34.30
2018-02-21T05:21:20.701Z,30.60
2018-02-21T05:22:20.684Z,34.30
2018-02-21T05:23:20.669Z,32.40
2018-02-21T05:24:20.689Z,32.70
2018-02-21T05:25:20.673Z,31.80
2018-02-21T05:26:20.611Z,31.00
2018-02-21T05:27:20.599Z,30.80
2018-02-21T05:28:20.582Z,32.70
2018-02-21T05:29:20.607Z,35.50
2018-02-21T05:30:20.541Z,30.10
2018-02-21T05:31:20.524Z,31.80
2018-02-21T05:32:20.504Z,30.70
2018-02-21T05:33:20.486Z,28.50
2018-02-21T05:34:20.470Z,31.20
2018-02-21T05:35:20.453Z,32.70
2018-02-21T05:36:20.433Z,32.70
2018-02-21T05:37:20.421Z,31.40
2018-02-21T05:38:20.400Z,32.30
2018-02-21T05:39:20.388Z,30.40
2018-02-21T05:40:20.364Z,32.60
2018-02-21T05:41:20.350Z,32.10
2018-02-21T05:42:20.332Z,33.30
2018-02-21T05:43:20.314Z,31.40
2018-02-21T05:44:20.304Z,30.20
2018-02-21T05:45:20.283Z,30.40
2018-02-21T05:46:20.271Z,31.10
2018-02-21T05:47:20.249Z,31.50
2018-02-21T05:48:20.232Z,30.70
2018-02-21T05:49:20.214Z,29.70
2018-02-21T05:50:20.215Z,30.70
2018-02-21T05:51:20.208Z,31.00
2018-02-21T05:52:20.173Z,29.30
2018-02-21T05:53:20.148Z,28.50
2018-02-21T05:54:20.135Z,29.50
2018-02-21T05:55:20.109Z,31.60
2018-02-21T05:56:20.088Z,28.40
2018-02-21T05:57:20.076Z,31.10
2018-02-21T05:58:20.073Z,30.90
2018-02-21T05:59:20.039Z,28.30
2018-02-21T06:00:20.024Z,28.70
2018-02-21T06:01:20.011Z,30.20
2018-02-21T06:02:19.996Z,28.60
2018-02-21T06:03:19.972Z,27.60
2018-02-21T06:04:19.961Z,28.30
2018-02-21T06:05:19.937Z,27.70
2018-02-21T06:06:19.927Z,27.50
2018-02-21T06:07:19.904Z,31.10
2018-02-21T06:08:19.889Z,29.70
2018-02-21T06:09:19.875Z,28.30
2018-02-21T06:10:19.854Z,27.50
2018-02-21T06:11:19.846Z,26.20
2018-02-21T06:12:19.818Z,25.90
2018-02-21T06:13:19.805Z,26.70
2018-02-21T06:14:19.787Z,29.60
2018-02-21T06:15:19.779Z,26.30
2018-02-21T06:16:19.754Z,23.80
2018-02-21T06:17:19.738Z,24.50
2018-02-21T06:18:19.720Z,27.40
2018-02-21T06:19:19.704Z,27.10
2018-02-21T06:20:19.687Z,25.10
2018-02-21T06:21:19.670Z,27.20
2018-02-21T06:22:19.653Z,23.50
2018-02-21T06:23:19.637Z,27.00
2018-02-21T06:24:19.618Z,23.80
2018-02-21T06:25:19.601Z,27.40
2018-02-21T06:26:19.622Z,25.80
2018-02-21T06:27:19.570Z,26.00
2018-02-21T06:28:19.556Z,25.70
2018-02-21T06:29:19.535Z,25.40
2018-02-21T06:30:19.526Z,25.70
2018-02-21T06:31:19.505Z,27.20
2018-02-21T06:32:19.483Z,24.50
2018-02-21T06:33:19.467Z,25.40
2018-02-21T06:34:19.458Z,28.90
2018-02-21T06:35:19.434Z,23.00
2018-02-21T06:36:19.422Z,27.00
2018-02-21T06:37:19.407Z,26.60
2018-02-21T06:38:19.380Z,26.60
2018-02-21T06:39:19.375Z,25.40
2018-02-21T06:40:19.348Z,24.90
2018-02-21T06:41:19.334Z,26.90
2018-02-21T06:42:19.318Z,22.70
2018-02-21T06:43:19.299Z,26.30
2018-02-21T06:44:19.282Z,25.10
2018-02-21T06:45:19.266Z,27.40
2018-02-21T06:46:19.250Z,27.60
2018-02-21T06:47:19.236Z,25.40
2018-02-21T06:48:19.214Z,27.50
2018-02-21T06:49:19.206Z,25.80
2018-02-21T06:50:19.189Z,24.90
2018-02-21T06:51:19.172Z,27.00
2018-02-21T06:52:19.147Z,25.10
2018-02-21T06:53:19.130Z,25.70
2018-02-21T06:54:19.114Z,27.70
2018-02-21T06:55:19.096Z,26.60
2018-02-21T06:56:19.082Z,24.70
2018-02-21T06:57:19.062Z,25.20
2018-02-21T06:58:19.048Z,24.20
2018-02-21T06:59:19.028Z,27.30
2018-02-21T07:00:19.018Z,27.20
2018-02-21T07:01:18.998Z,26.70
2018-02-21T07:02:18.979Z,24.50
2018-02-21T07:03:18.962Z,25.70
2018-02-21T07:04:18.953Z,24.80
2018-02-21T07:05:18.934Z,28.30
2018-02-21T07:06:18.912Z,26.20
2018-02-21T07:07:18.893Z,27.10
2018-02-21T07:08:18.880Z,26.80
2018-02-21T07:09:18.861Z,24.70
2018-02-21T07:10:18.848Z,26.40
2018-02-21T07:11:18.829Z,27.50
2018-02-21T07:12:18.813Z,26.70
2018-02-21T07:13:18.795Z,29.80
2018-02-21T07:14:18.780Z,25.30
2018-02-21T07:15:18.805Z,26.40
2018-02-21T07:16:18.745Z,25.30
2018-02-21T07:17:18.728Z,26.50
2018-02-21T07:18:18.708Z,26.20
2018-02-21T07:19:18.696Z,25.90
2018-02-21T07:20:18.682Z,29.80
2018-02-21T07:21:18.659Z,25.80
2018-02-21T07:22:18.648Z,29.40
2018-02-21T07:23:18.624Z,27.80
2018-02-21T07:24:18.609Z,28.50
2018-02-21T07:25:18.592Z,28.40
2018-02-21T07:26:18.576Z,28.60
2018-02-21T07:27:18.557Z,30.90
2018-02-21T07:28:18.546Z,27.90
2018-02-21T07:29:18.530Z,28.40
2018-02-21T07:30:18.507Z,28.30
2018-02-21T07:31:18.493Z,27.20
2018-02-21T07:32:18.470Z,32.50
2018-02-21T07:33:18.455Z,28.80
2018-02-21T07:34:18.443Z,32.90
2018-02-21T07:35:18.420Z,28.20
2018-02-21T07:36:18.401Z,30.10
2018-02-21T07:37:18.387Z,31.80
2018-02-21T07:38:18.371Z,32.00
2018-02-21T07:39:18.353Z,31.70
2018-02-21T07:40:18.332Z,32.60
2018-02-21T07:41:18.318Z,30.20
2018-02-21T07:42:18.305Z,32.90
2018-02-21T07:43:18.287Z,32.00
2018-02-21T07:44:18.266Z,30.60
2018-02-21T07:45:18.248Z,31.40
2018-02-21T07:46:18.230Z,33.40
2018-02-21T07:47:18.211Z,32.70
2018-02-21T07:48:18.197Z,32.60
2018-02-21T07:49:18.178Z,31.20
2018-02-21T07:50:18.162Z,34.30
2018-02-21T07:51:18.144Z,32.40
2018-02-21T07:52:18.124Z,35.60
2018-02-21T07:53:18.110Z,34.50
2018-02-21T07:54:18.129Z,36.70
2018-02-21T07:55:18.080Z,32.50
2018-02-21T07:56:18.055Z,35.50
2018-02-21T07:57:18.044Z,34.20
2018-02-21T07:58:18.031Z,35.70
2018-02-21T07:59:18.010Z,33.90
2018-02-21T08:00:17.985Z,34.20
2018-02-21T08:01:17.966Z,32.60
2018-02-21T08:02:17.951Z,33.50
2018-02-21T08:03:17.933Z,35.10
2018-02-21T08:04:17.916Z,37.20
2018-02-21T08:05:17.897Z,33.50
2018-02-21T08:06:17.879Z,34.90
2018-02-21T08:07:17.862Z,37.20
2018-02-21T08:08:17.851Z,36.90
2018-02-21T08:09:17.832Z,37.80
2018-02-21T08:10:17.812Z,34.30
2018-02-21T08:11:17.792Z,34.40
2018-02-21T08:12:17.774Z,37.70
2018-02-21T08:13:17.757Z,35.90
2018-02-21T08:14:17.742Z,34.70
2018-02-21T08:15:17.739Z,35.10
2018-02-21T08:16:17.705Z,37.40
2018-02-21T08:17:17.688Z,38.10
2018-02-21T08:18:17.676Z,37.10
2018-02-21T08:19:17.651Z,34.60
2018-02-21T08:20:17.639Z,36.20
2018-02-21T08:21:17.617Z,36.40
2018-02-21T08:22:17.599Z,35.40
2018-02-21T08:23:17.590Z,34.90
2018-02-21T08:24:17.567Z,36.30
2018-02-21T08:25:17.552Z,33.00
2018-02-21T08:26:17.535Z,32.80
2018-02-21T08:27:17.513Z,38.60
2018-02-21T08:28:17.581Z,37.70
2018-02-21T08:29:17.476Z,36.40
2018-02-21T08:30:17.465Z,34.20
2018-02-21T08:31:17.450Z,33.70
2018-02-21T08:32:17.428Z,38.30
2018-02-21T08:33:17.410Z,37.70
2018-02-21T08:34:17.393Z,36.40
2018-02-21T08:35:17.376Z,35.70
2018-02-21T08:36:17.352Z,34.80
2018-02-21T08:37:17.338Z,36.40
2018-02-21T08:38:17.330Z,36.20
2018-02-21T08:39:17.303Z,34.70
2018-02-21T08:40:17.289Z,36.60
2018-02-21T08:41:17.264Z,36.10
2018-02-21T08:42:17.248Z,36.90
2018-02-21T08:43:17.235Z,36.80
2018-02-21T08:44:17.212Z,38.20
2018-02-21T08:45:17.200Z,36.50
2018-02-21T08:46:17.178Z,36.00
2018-02-21T08:47:17.165Z,38.40
2018-02-21T08:48:17.144Z,37.10
2018-02-21T08:49:17.128Z,37.40
2018-02-21T08:50:17.111Z,37.90
2018-02-21T08:51:17.090Z,34.10
2018-02-21T08:52:17.078Z,38.20
2018-02-21T08:53:17.058Z,38.10
2018-02-21T08:54:17.041Z,35.60
2018-02-21T08:55:17.020Z,37.60
2018-02-21T08:56:17.008Z,35.30
2018-02-21T08:57:16.996Z,36.10
2018-02-21T08:58:16.969Z,40.10
2018-02-21T08:59:16.950Z,36.10
2018-02-21T09:00:16.933Z,35.70
2018-02-21T09:01:16.915Z,37.80
2018-02-21T09:02:16.905Z,34.40
2018-02-21T09:03:16.879Z,38.00
2018-02-21T09:04:16.862Z,34.90
2018-02-21T09:05:16.846Z,39.50
2018-02-21T09:06:16.831Z,36.60
2018-02-21T09:07:16.812Z,39.00
2018-02-21T09:08:16.794Z,40.90
2018-02-21T09:09:16.776Z,38.80
2018-02-21T09:10:16.761Z,39.80
2018-02-21T09:11:16.741Z,38.00
2018-02-21T09:12:16.723Z,38.10
2018-02-21T09:13:16.711Z,38.00
2018-02-21T09:14:16.690Z,36.30
2018-02-21T09:15:16.679Z,39.60
2018-02-21T09:16:16.657Z,38.40
2018-02-21T09:17:16.639Z,37.00
2018-02-21T09:18:16.626Z,38.00
2018-02-21T09:19:16.604Z,38.00
2018-02-21T09:20:16.591Z,41.30
2018-02-21T09:21:16.575Z,39.00
2018-02-21T09:22:16.558Z,37.30
2018-02-21T09:23:16.597Z,35.80
2018-02-21T09:24:16.513Z,38.80
2018-02-21T09:25:16.498Z,37.00
2018-02-21T09:26:16.481Z,41.70
2018-02-21T09:27:16.461Z,36.20
2018-02-21T09:28:16.449Z,36.80
2018-02-21T09:29:16.429Z,39.30
2018-02-21T09:30:16.411Z,37.10
2018-02-21T09:31:16.395Z,37.90
2018-02-21T09:32:16.381Z,40.40
2018-02-21T09:33:16.357Z,38.20
2018-02-21T09:34:16.340Z,37.60
2018-02-21T09:35:16.323Z,39.60
2018-02-21T09:36:16.305Z,36.30
2018-02-21T09:37:16.291Z,37.90
2018-02-21T09:38:16.272Z,40.40
2018-02-21T09:39:16.258Z,39.50
2018-02-21T09:40:16.236Z,38.00
2018-02-21T09:41:16.225Z,38.40
2018-02-21T09:42:16.199Z,42.00
2018-02-21T09:43:16.187Z,40.80
2018-02-21T09:44:16.171Z,39.70
2018-02-21T09:45:16.159Z,35.60
2018-02-21T09:46:16.130Z,37.30
2018-02-21T09:47:16.112Z,37.70
2018-02-21T09:48:16.116Z,37.20
2018-02-21T09:49:16.091Z,41.40
2018-02-21T09:50:16.061Z,38.30
2018-02-21T09:51:16.042Z,35.10
2018-02-21T09:52:16.024Z,38.20
2018-02-21T09:53:16.013Z,40.70
2018-02-21T09:54:15.991Z,38.70
2018-02-21T09:55:15.980Z,37.50
2018-02-21T09:56:15.956Z,41.80
2018-02-21T09:57:15.939Z,38.00
2018-02-21T09:58:15.922Z,36.60
2018-02-21T09:59:16.031Z,40.50
2018-02-21T10:00:15.888Z,37.50
2018-02-21T10:01:15.873Z,39.30
2018-02-21T10:02:15.859Z,39.00
2018-02-21T10:03:15.836Z,35.70
2018-02-21T10:04:15.817Z,38.10
2018-02-21T10:05:15.809Z,37.20
2018-02-21T10:06:15.784Z,38.70
2018-02-21T10:07:15.766Z,39.90
2018-02-21T10:08:15.749Z,40.00
2018-02-21T10:09:15.731Z,41.30
2018-02-21T10:10:15.713Z,37.10
2018-02-21T10:11:15.693Z,39.00
2018-02-21T10:12:15.682Z,37.90
2018-02-21T10:13:15.662Z,37.50
2018-02-21T10:14:15.650Z,38.10
2018-02-21T10:15:15.625Z,37.80
2018-02-21T10:16:15.611Z,37.40
2018-02-21T10:17:15.600Z,38.10
2018-02-21T10:18:15.584Z,39.40
2018-02-21T10:19:15.557Z,37.60
2018-02-21T10:20:15.544Z,37.70
2018-02-21T10:21:15.520Z,37.80
2018-02-21T10:22:15.509Z,40.20
2018-02-21T10:23:15.486Z,39.50
2018-02-21T10:24:15.467Z,35.50
2018-02-21T10:25:15.454Z,38.70
2018-02-21T10:26:15.434Z,41.40
2018-02-21T10:27:15.422Z,40.10
2018-02-21T10:28:15.399Z,37.60
2018-02-21T10:29:15.388Z,42.00
2018-02-21T10:30:15.371Z,34.50
2018-02-21T10:31:15.347Z,39.30
2018-02-21T10:32:15.328Z,39.40
2018-02-21T10:33:15.320Z,37.10
2018-02-21T10:34:15.297Z,40.20
2018-02-21T10:35:15.279Z,36.70
2018-02-21T10:36:15.261Z,39.70
2018-02-21T10:37:15.242Z,37.00
2018-02-21T10:38:15.226Z,35.40
2018-02-21T10:39:15.216Z,38.60
2018-02-21T10:40:15.196Z,37.30
2018-02-21T10:41:15.174Z,38.10
2018-02-21T10:42:15.160Z,36.40
2018-02-21T10:43:15.144Z,39.30
2018-02-21T10:44:15.125Z,38.20
2018-02-21T10:45:15.106Z,38.60
2018-02-21T10:46:15.089Z,38.20
2018-02-21T10:47:15.076Z,34.30
2018-02-21T10:48:15.063Z,39.50
2018-02-21T10:49:15.037Z,38.70
2018-02-21T10:50:15.020Z,35.00
2018-02-21T10:51:15.010Z,31.30
2018-02-21T10:52:14.987Z,32.30
2018-02-21T10:53:14.970Z,39.30
2018-02-21T10:54:14.962Z,35.40
2018-02-21T10:55:14.943Z,36.40
2018-02-21T10:56:14.915Z,37.10
2018-02-21T10:57:14.901Z,34.70
2018-02-21T10:58:14.883Z,31.70
2018-02-21T10:59:14.866Z,35.50
2018-02-21T11:00:14.849Z,33.20
2018-02-21T11:01:14.834Z,33.90
2018-02-21T11:02:14.817Z,34.50
2018-02-21T11:03:14.804Z,31.80
2018-02-21T11:04:14.785Z,33.90
2018-02-21T11:05:14.764Z,31.60
2018-02-21T11:06:14.747Z,31.60
2018-02-21T11:07:14.733Z,33.80
2018-02-21T11:08:14.712Z,31.60
2018-02-21T11:09:14.704Z,31.40
2018-02-21T11:10:14.678Z,29.70
2018-02-21T11:11:14.662Z,32.50
2018-02-21T11:12:14.650Z,32.70
2018-02-21T11:13:14.627Z,31.60
2018-02-21T11:14:14.610Z,32.60
2018-02-21T11:15:14.599Z,33.50
2018-02-21T11:16:14.575Z,31.60
2018-02-21T11:17:14.567Z,32.10
2018-02-21T11:18:14.549Z,31.20
2018-02-21T11:19:14.526Z,36.30
2018-02-21T11:20:14.509Z,33.20
2018-02-21T11:21:14.491Z,32.60
2018-02-21T11:22:14.477Z,31.00
2018-02-21T11:23:14.463Z,32.30
2018-02-21T11:24:14.447Z,31.00
2018-02-21T11:25:14.426Z,33.10
2018-02-21T11:26:14.410Z,32.10
2018-02-21T11:27:14.391Z,28.50
2018-02-21T11:28:14.387Z,30.90
2018-02-21T11:29:14.361Z,31.30
2018-02-21T11:30:14.343Z,29.60
2018-02-21T11:31:14.323Z,31.20
2018-02-21T11:32:14.307Z,28.50
2018-02-21T11:33:14.298Z,28.80
2018-02-21T11:34:14.276Z,29.60
2018-02-21T11:35:14.258Z,28.90
2018-02-21T11:36:14.243Z,26.90
2018-02-21T11:37:14.225Z,31.90
2018-02-21T11:38:14.209Z,30.40
2018-02-21T11:39:14.197Z,29.10
2018-02-21T11:40:14.174Z,26.60
2018-02-21T11:41:14.159Z,28.30
2018-02-21T11:42:14.142Z,27.90
2018-02-21T11:43:14.127Z,27.60
2018-02-21T11:44:14.115Z,27.10
2018-02-21T11:45:14.102Z,28.10
2018-02-21T11:46:14.076Z,27.50
2018-02-21T11:47:14.059Z,28.50
2018-02-21T11:48:14.049Z,28.00
2018-02-21T11:49:14.030Z,29.00
2018-02-21T11:50:14.013Z,27.40
2018-02-21T11:51:14.001Z,29.10
2018-02-21T11:52:13.979Z,27.40
2018-02-21T11:53:13.963Z,27.50
2018-02-21T11:54:13.947Z,27.50
2018-02-21T11:55:13.933Z,27.20
2018-02-21T11:56:13.916Z,27.10
2018-02-21T11:57:13.899Z,28.90
2018-02-21T11:58:13.891Z,29.00
2018-02-21T11:59:13.865Z,28.90
2018-02-21T12:00:13.850Z,28.00
2018-02-21T12:01:13.834Z,27.20
2018-02-21T12:02:13.823Z,27.50
2018-02-21T12:03:13.801Z,25.20
2018-02-21T12:04:13.791Z,27.90
2018-02-21T12:05:13.771Z,28.30
2018-02-21T12:06:13.761Z,27.00
2018-02-21T12:07:13.736Z,30.70
2018-02-21T12:08:13.720Z,28.10
2018-02-21T12:09:13.707Z,28.80
2018-02-21T12:10:13.696Z,27.20
2018-02-21T12:11:13.671Z,26.30
2018-02-21T12:12:13.656Z,26.00
2018-02-21T12:13:13.643Z,26.80
2018-02-21T12:14:13.636Z,27.60
2018-02-21T12:15:13.608Z,26.10
2018-02-21T12:16:13.598Z,26.90
2018-02-21T12:17:13.576Z,25.60
2018-02-21T12:18:13.561Z,26.60
2018-02-21T12:19:13.542Z,25.40
2018-02-21T12:20:13.525Z,27.20
2018-02-21T12:21:13.510Z,27.90
2018-02-21T12:22:13.499Z,25.50
2018-02-21T12:23:13.480Z,28.50
2018-02-21T12:24:13.470Z,25.80
2018-02-21T12:25:13.445Z,25.20
2018-02-21T12:26:13.431Z,26.80
2018-02-21T12:27:13.413Z,26.60
2018-02-21T12:28:13.397Z,26.20
2018-02-21T12:29:13.380Z,26.40
2018-02-21T12:30:13.363Z,31.40
2018-02-21T12:31:13.349Z,27.80
2018-02-21T12:32:13.332Z,24.60
2018-02-21T12:33:13.317Z,29.10
2018-02-21T12:34:13.299Z,27.60
2018-02-21T12:35:13.282Z,26.80
2018-02-21T12:36:13.267Z,27.70
2018-02-21T12:37:13.257Z,29.40
2018-02-21T12:38:13.235Z,31.20
2018-02-21T12:39:13.217Z,30.20
2018-02-21T12:40:13.202Z,27.90
2018-02-21T12:41:13.191Z,30.30
2018-02-21T12:42:13.170Z,29.50
2018-02-21T12:43:13.153Z,30.70
2018-02-21T12:44:13.139Z,28.20
2018-02-21T12:45:13.123Z,31.40
2018-02-21T12:46:13.111Z,29.60
2018-02-21T12:47:13.090Z,31.50
2018-02-21T12:48:13.074Z,30.70
2018-02-21T12:49:13.057Z,29.30
2018-02-21T12:50:13.100Z,30.40
2018-02-21T12:51:13.025Z,28.70
2018-02-21T12:52:13.012Z,28.00